Time;durP1;ratioP1;P1;durP2;ratioP2;P2;SDS_P1;SDS_P2;PMS_P1;PMS_P2;Temp;Humidity;BMP_temperature;BMP_pressure;BME280_temperature;BME280_humidity;BME280_pressure;Samples;Min_cycle;Max_cycle;Signal;HPM_P1;HPM_P2
2022/08/30 00:01:27;;;;;;;69.40;4.77;;;20.50;1.00;;;;;;5079804;28;20408;-83
2022/08/30 00:03:54;;;;;;;68.83;4.40;;;20.40;1.00;;;;;;5079973;28;20401;-83
2022/08/30 00:06:21;;;;;;;68.50;4.37;;;20.40;1.00;;;;;;5080278;28;21036;-84
2022/08/30 00:08:48;;;;;;;70.10;4.40;;;20.40;1.00;;;;;;5079348;28;20497;-83
2022/08/30 00:11:25;;;;;;;67.37;4.03;;;20.30;1.00;;;;;;5079756;28;20986;-83
2022/08/30 00:13:53;;;;;;;69.67;3.93;;;20.30;1.00;;;;;;5081740;28;20410;-83
2022/08/30 00:16:21;;;;;;;68.17;4.10;;;20.20;1.00;;;;;;5078409;28;20525;-83
2022/08/30 00:18:48;;;;;;;68.87;4.20;;;20.10;1.00;;;;;;5060297;28;20428;-83
2022/08/30 00:21:14;;;;;;;67.20;4.30;;;20.10;1.00;;;;;;5078191;28;20403;-83
2022/08/30 00:23:40;;;;;;;68.53;4.20;;;20.20;1.00;;;;;;5078545;28;20455;-83
2022/08/30 00:26:07;;;;;;;69.80;4.60;;;20.20;1.00;;;;;;5078608;28;20399;-83
2022/08/30 00:28:33;;;;;;;72.87;5.47;;;20.20;1.00;;;;;;5060113;28;20444;-83
2022/08/30 00:31:00;;;;;;;68.40;4.47;;;20.10;1.00;;;;;;5079041;28;20436;-83
2022/08/30 00:33:27;;;;;;;69.57;4.80;;;20.20;1.00;;;;;;5060161;28;20434;-83
2022/08/30 00:35:53;;;;;;;67.83;4.13;;;20.10;1.00;;;;;;5079028;28;20935;-83
2022/08/30 00:38:19;;;;;;;67.20;4.23;;;20.10;1.00;;;;;;5060849;28;20426;-83
2022/08/30 00:40:45;;;;;;;74.30;4.80;;;20.10;1.00;;;;;;5060500;28;20708;-83
2022/08/30 00:43:22;;;;;;;68.70;4.30;;;20.10;1.00;;;;;;5078191;28;20411;-83
2022/08/30 00:45:48;;;;;;;68.83;4.43;;;20.00;1.00;;;;;;5078700;28;20393;-83
2022/08/30 00:48:14;;;;;;;67.80;4.60;;;20.00;1.00;;;;;;5078222;28;20423;-83
2022/08/30 00:50:47;;;;;;;68.17;4.70;;;20.00;1.00;;;;;;5078308;28;20423;-83
2022/08/30 00:53:21;;;;;;;68.47;4.60;;;20.00;1.00;;;;;;5078792;28;20153;-83
2022/08/30 00:55:48;;;;;;;69.17;4.63;;;19.90;1.00;;;;;;5060460;28;20522;-83
2022/08/30 00:58:20;;;;;;;68.00;4.07;;;19.90;1.00;;;;;;5078168;28;20755;-83
2022/08/30 01:00:49;;;;;;;68.80;5.10;;;19.90;1.00;;;;;;5081681;28;20441;-83
2022/08/30 01:03:15;;;;;;;69.80;5.40;;;19.80;1.00;;;;;;5082459;28;20761;-83
2022/08/30 01:05:41;;;;;;;70.57;5.27;;;19.80;1.00;;;;;;5082010;28;20491;-83
2022/08/30 01:08:07;;;;;;;68.07;4.60;;;19.80;1.00;;;;;;5082122;28;20188;-83
2022/08/30 01:10:35;;;;;;;68.67;4.90;;;19.80;1.00;;;;;;5064215;28;20439;-83
2022/08/30 01:13:01;;;;;;;72.57;5.93;;;19.80;1.00;;;;;;5064112;28;20485;-83
2022/08/30 01:15:28;;;;;;;70.07;5.90;;;19.80;1.00;;;;;;5081728;28;20442;-83
2022/08/30 01:17:54;;;;;;;72.47;5.90;;;19.80;1.00;;;;;;5081748;28;20773;-83
2022/08/30 01:20:31;;;;;;;70.00;5.33;;;19.80;1.00;;;;;;5081246;28;20395;-83
2022/08/30 01:23:13;;;;;;;71.50;7.50;;;19.80;1.60;;;;;;5081856;28;20457;-83
2022/08/30 01:25:41;;;;;;;75.40;7.00;;;19.80;2.50;;;;;;5082521;28;20896;-83
2022/08/30 01:28:14;;;;;;;69.07;6.30;;;19.80;3.90;;;;;;5081434;28;20426;-84
2022/08/30 01:30:41;;;;;;;72.80;6.10;;;19.80;4.50;;;;;;5081895;28;20390;-83
2022/08/30 01:33:10;;;;;;;68.97;6.63;;;19.80;6.10;;;;;;5082255;28;20466;-83
2022/08/30 01:35:53;;;;;;;68.33;6.87;;;19.90;6.10;;;;;;5064262;28;20439;-83
2022/08/30 01:38:23;;;;;;;70.77;7.20;;;19.80;7.00;;;;;;5082173;28;20432;-83
2022/08/30 01:40:49;;;;;;;68.00;6.33;;;19.80;7.60;;;;;;5082077;28;20399;-83
2022/08/30 01:43:17;;;;;;;69.47;7.20;;;19.80;8.70;;;;;;5081719;28;20442;-83
2022/08/30 01:45:43;;;;;;;72.13;6.70;;;19.80;8.40;;;;;;5063445;28;20406;-83
2022/08/30 01:48:11;;;;;;;70.00;7.20;;;19.90;8.30;;;;;;5064329;28;20427;-84
2022/08/30 01:50:37;;;;;;;70.10;7.70;;;19.90;8.90;;;;;;5082579;28;20491;-83
2022/08/30 01:53:04;;;;;;;72.30;6.70;;;19.80;9.50;;;;;;5080753;28;20401;-83
2022/08/30 01:55:30;;;;;;;68.33;7.60;;;19.80;9.90;;;;;;5081031;28;20568;-83
2022/08/30 01:57:56;;;;;;;70.53;7.67;;;19.80;10.30;;;;;;5080829;28;20422;-83
2022/08/30 02:00:22;;;;;;;71.73;6.67;;;19.80;10.80;;;;;;5063056;28;20487;-83
2022/08/30 02:02:48;;;;;;;70.17;6.63;;;19.80;10.70;;;;;;5081030;28;20488;-83
2022/08/30 02:05:14;;;;;;;68.10;6.90;;;19.80;10.70;;;;;;5081384;28;20173;-83
2022/08/30 02:07:40;;;;;;;69.30;6.10;;;19.80;11.40;;;;;;5063001;28;20439;-84
2022/08/30 02:10:07;;;;;;;71.97;8.20;;;19.80;12.30;;;;;;5081206;28;20846;-83
2022/08/30 02:12:33;;;;;;;72.17;7.60;;;19.80;12.30;;;;;;5063299;28;20409;-83
2022/08/30 02:14:59;;;;;;;70.90;7.20;;;19.80;13.00;;;;;;5081308;28;20495;-83
2022/08/30 02:17:26;;;;;;;69.17;7.10;;;19.70;14.10;;;;;;5081288;28;20512;-84
2022/08/30 02:19:51;;;;;;;68.83;6.10;;;19.70;15.40;;;;;;5081151;28;20427;-83
2022/08/30 02:22:19;;;;;;;70.80;8.70;;;19.70;15.50;;;;;;5062722;28;20955;-83
2022/08/30 02:24:45;;;;;;;67.90;7.13;;;19.70;15.40;;;;;;5080142;28;20536;-83
2022/08/30 02:27:11;;;;;;;70.00;7.73;;;19.60;16.10;;;;;;5080569;28;20452;-83
2022/08/30 02:29:36;;;;;;;69.97;7.10;;;19.60;17.00;;;;;;5079904;28;20650;-83
2022/08/30 02:32:03;;;;;;;72.27;7.67;;;19.60;16.90;;;;;;5080601;28;20191;-83
2022/08/30 02:34:29;;;;;;;68.07;6.23;;;19.60;18.00;;;;;;5062471;28;20169;-83
2022/08/30 02:36:55;;;;;;;69.10;6.53;;;19.70;18.10;;;;;;5062087;28;20429;-83
2022/08/30 02:39:21;;;;;;;70.00;7.40;;;19.70;17.60;;;;;;5061974;28;20172;-83
2022/08/30 02:41:47;;;;;;;72.90;5.53;;;19.60;17.90;;;;;;5080636;28;20405;-83
2022/08/30 02:44:13;;;;;;;72.57;8.10;;;19.60;19.20;;;;;;5062138;28;20500;-83
2022/08/30 02:46:39;;;;;;;69.20;6.60;;;19.60;19.60;;;;;;5062315;28;20432;-83
2022/08/30 02:49:07;;;;;;;68.80;7.43;;;19.60;19.30;;;;;;5080740;28;20898;-83
2022/08/30 02:51:33;;;;;;;71.17;6.77;;;19.60;19.40;;;;;;5079907;28;20437;-83
2022/08/30 02:53:58;;;;;;;69.70;7.50;;;19.50;19.70;;;;;;5079692;28;20412;-83
2022/08/30 02:56:24;;;;;;;71.60;6.80;;;19.50;18.60;;;;;;5080342;28;20210;-83
2022/08/30 02:58:50;;;;;;;69.40;6.70;;;19.50;19.80;;;;;;5061504;28;20197;-83
2022/08/30 03:01:17;;;;;;;70.90;7.23;;;19.50;18.70;;;;;;5079688;28;20648;-83
2022/08/30 03:03:48;;;;;;;70.37;6.50;;;19.50;18.90;;;;;;5079881;28;20212;-83
2022/08/30 03:06:14;;;;;;;70.87;6.50;;;19.50;20.20;;;;;;5061386;28;20409;-83
2022/08/30 03:08:40;;;;;;;69.33;7.03;;;19.40;21.00;;;;;;5061639;28;20410;-83
2022/08/30 03:11:06;;;;;;;68.50;6.63;;;19.40;21.40;;;;;;5062371;28;20176;-83
2022/08/30 03:13:32;;;;;;;69.37;5.53;;;19.40;21.10;;;;;;5079968;28;20431;-83
2022/08/30 03:15:58;;;;;;;70.50;6.47;;;19.30;21.70;;;;;;5079747;28;20470;-83
2022/08/30 03:18:25;;;;;;;67.90;6.47;;;19.30;22.40;;;;;;5062229;28;20213;-83
2022/08/30 03:20:51;;;;;;;69.43;6.67;;;19.30;23.40;;;;;;5080332;28;20404;-83
2022/08/30 03:23:17;;;;;;;72.80;6.00;;;19.20;24.80;;;;;;5045092;28;20421;-83
2022/08/30 03:25:44;;;;;;;69.10;6.67;;;19.20;25.80;;;;;;5081466;28;20546;-83
2022/08/30 03:28:10;;;;;;;68.80;6.60;;;19.20;26.40;;;;;;5080711;28;20936;-83
2022/08/30 03:30:36;;;;;;;74.30;6.83;;;19.10;28.20;;;;;;5061431;28;20417;-83
2022/08/30 03:33:02;;;;;;;73.27;5.90;;;19.20;28.50;;;;;;5078987;28;20430;-82
2022/08/30 03:35:28;;;;;;;68.50;7.00;;;19.10;28.60;;;;;;5080214;28;20476;-83
2022/08/30 03:37:53;;;;;;;68.03;5.83;;;19.10;30.30;;;;;;5061863;28;20433;-83
2022/08/30 03:40:21;;;;;;;69.27;7.30;;;19.10;29.50;;;;;;5079200;28;20445;-83
2022/08/30 03:42:47;;;;;;;70.50;6.70;;;19.10;28.90;;;;;;5079296;28;20292;-83
2022/08/30 03:45:15;;;;;;;69.37;6.40;;;19.10;29.30;;;;;;5061847;28;20573;-83
2022/08/30 03:47:41;;;;;;;69.77;6.30;;;19.10;29.30;;;;;;5079650;28;20434;-83
2022/08/30 03:50:08;;;;;;;75.53;7.70;;;19.10;28.30;;;;;;5061658;28;20413;-83
2022/08/30 03:52:33;;;;;;;68.70;6.00;;;19.10;28.90;;;;;;5061497;28;20183;-82
2022/08/30 03:55:00;;;;;;;71.10;6.80;;;19.10;28.20;;;;;;5061791;28;20460;-83
2022/08/30 03:57:28;;;;;;;71.90;7.47;;;19.00;30.00;;;;;;5061036;28;20274;-83
2022/08/30 03:59:53;;;;;;;71.80;7.07;;;19.00;30.20;;;;;;5078988;28;20452;-83
2022/08/30 04:02:20;;;;;;;69.03;7.20;;;19.00;30.90;;;;;;5079503;28;20489;-83
2022/08/30 04:04:46;;;;;;;72.70;6.60;;;19.00;32.40;;;;;;5078965;28;20540;-83
2022/08/30 04:07:12;;;;;;;72.00;7.90;;;19.00;32.20;;;;;;5079247;28;20460;-83
2022/08/30 04:09:38;;;;;;;69.10;7.50;;;19.00;33.30;;;;;;5061571;28;20491;-83
2022/08/30 04:12:04;;;;;;;72.07;7.00;;;18.90;33.70;;;;;;5079023;28;20194;-83
2022/08/30 04:14:29;;;;;;;68.43;7.20;;;18.80;35.40;;;;;;5078818;28;20407;-83
2022/08/30 04:16:56;;;;;;;68.70;6.83;;;18.80;35.90;;;;;;5060953;28;20430;-83
2022/08/30 04:19:22;;;;;;;67.20;5.93;;;18.80;37.50;;;;;;5059918;28;20263;-83
2022/08/30 04:21:48;;;;;;;71.87;8.63;;;18.70;38.20;;;;;;5060542;28;20455;-83
2022/08/30 04:24:14;;;;;;;68.77;6.10;;;18.70;38.80;;;;;;5079746;28;20636;-83
2022/08/30 04:26:40;;;;;;;67.10;7.60;;;18.70;40.00;;;;;;5078749;28;20430;-83
2022/08/30 04:29:05;;;;;;;67.70;7.10;;;18.70;40.30;;;;;;5078337;28;20413;-83
2022/08/30 04:31:31;;;;;;;72.40;8.30;;;18.70;40.00;;;;;;5147762;22;20476;-85
2022/08/30 04:33:57;;;;;;;70.50;7.47;;;18.60;41.60;;;;;;5079383;28;20167;-85
2022/08/30 04:36:23;;;;;;;69.17;7.97;;;18.60;42.40;;;;;;5063977;28;20225;-85
2022/08/30 04:38:48;;;;;;;67.83;6.90;;;18.50;43.80;;;;;;5082484;28;20175;-85
2022/08/30 04:41:16;;;;;;;72.13;8.60;;;18.50;44.80;;;;;;5082338;28;20227;-85
2022/08/30 04:43:44;;;;;;;68.47;7.83;;;18.50;45.10;;;;;;5082086;28;20182;-85
2022/08/30 04:46:10;;;;;;;70.73;7.53;;;18.50;46.70;;;;;;5082505;28;20399;-85
2022/08/30 04:48:37;;;;;;;69.17;8.23;;;18.50;46.10;;;;;;5082641;28;20407;-85
2022/08/30 04:51:08;;;;;;;70.17;8.53;;;18.40;48.80;;;;;;5064499;28;20251;-85
2022/08/30 04:53:34;;;;;;;70.47;8.37;;;18.40;48.20;;;;;;5082299;28;20798;-84
2022/08/30 04:56:05;;;;;;;68.77;8.90;;;18.40;48.80;;;;;;5082051;28;20434;-84
2022/08/30 04:58:31;;;;;;;68.40;8.53;;;18.50;48.30;;;;;;5081590;28;20426;-85
2022/08/30 05:00:56;;;;;;;68.60;8.53;;;18.50;48.80;;;;;;5081814;28;20398;-85
2022/08/30 05:03:22;;;;;;;71.33;10.70;;;18.50;49.80;;;;;;5081113;28;20156;-85
2022/08/30 05:05:49;;;;;;;70.63;12.10;;;18.50;51.00;;;;;;5081673;28;20217;-85
2022/08/30 05:08:17;;;;;;;69.57;11.60;;;18.50;51.30;;;;;;5062716;28;20220;-85
2022/08/30 05:10:46;;;;;;;71.03;12.10;;;18.60;53.00;;;;;;5080674;28;20417;-85
2022/08/30 05:13:12;;;;;;;70.73;12.00;;;18.60;53.30;;;;;;5063119;28;20417;-85
2022/08/30 05:15:39;;;;;;;70.17;14.47;;;18.60;54.90;;;;;;5063215;28;21050;-85
2022/08/30 05:18:06;;;;;;;72.33;13.77;;;18.60;54.10;;;;;;5080767;28;20422;-85
2022/08/30 05:20:33;;;;;;;69.90;13.20;;;18.60;55.40;;;;;;5063137;28;20410;-85
2022/08/30 05:23:00;;;;;;;72.87;13.33;;;18.60;55.10;;;;;;5080932;28;20402;-85
2022/08/30 05:25:29;;;;;;;71.07;14.30;;;18.70;54.60;;;;;;5080737;28;20398;-85
2022/08/30 05:27:55;;;;;;;76.63;14.70;;;18.70;54.10;;;;;;5080844;28;20414;-85
2022/08/30 05:30:22;;;;;;;72.57;15.30;;;18.70;55.00;;;;;;5079517;28;20746;-84
2022/08/30 05:32:48;;;;;;;70.97;14.90;;;18.70;57.60;;;;;;5062931;28;20425;-84
2022/08/30 05:35:15;;;;;;;70.10;13.63;;;18.70;58.60;;;;;;5079752;28;20450;-84
2022/08/30 05:37:42;;;;;;;75.60;15.13;;;18.80;58.70;;;;;;5079630;28;20181;-84
2022/08/30 05:40:08;;;;;;;72.30;16.20;;;18.80;57.90;;;;;;5080387;28;20417;-84
2022/08/30 05:42:35;;;;;;;84.23;15.87;;;18.80;60.00;;;;;;5079589;28;20399;-83
2022/08/30 05:45:02;;;;;;;69.57;13.00;;;18.80;61.10;;;;;;5079775;28;20408;-84
2022/08/30 05:47:28;;;;;;;74.37;14.70;;;18.80;59.70;;;;;;5078459;28;20424;-84
2022/08/30 05:49:53;;;;;;;72.63;13.33;;;18.90;58.90;;;;;;5079313;28;20742;-83
2022/08/30 05:52:19;;;;;;;71.67;11.10;;;19.00;57.30;;;;;;5079987;28;20169;-84
2022/08/30 05:54:51;;;;;;;69.07;9.07;;;19.10;54.90;;;;;;5061486;28;20237;-84
2022/08/30 05:57:16;;;;;;;70.40;8.90;;;19.30;50.30;;;;;;5061136;28;20440;-84
2022/08/30 05:59:43;;;;;;;70.00;11.60;;;19.30;48.30;;;;;;5080199;28;20404;-83
2022/08/30 06:02:08;;;;;;;72.57;11.37;;;19.20;52.10;;;;;;5061459;28;20190;-84
2022/08/30 06:04:35;;;;;;;70.27;12.80;;;19.20;53.60;;;;;;5079723;28;20533;-85
2022/08/30 06:07:01;;;;;;;73.37;12.57;;;19.20;54.10;;;;;;5079042;28;20266;-84
2022/08/30 06:09:30;;;;;;;71.33;12.90;;;19.30;55.30;;;;;;5044738;28;20408;-84
2022/08/30 06:11:56;;;;;;;72.33;11.53;;;19.30;54.80;;;;;;5079065;28;20485;-84
2022/08/30 06:14:22;;;;;;;71.23;9.97;;;19.30;55.30;;;;;;5060494;28;20920;-84
2022/08/30 06:16:48;;;;;;;74.47;10.70;;;19.30;55.40;;;;;;5060419;28;20458;-84
2022/08/30 06:19:15;;;;;;;69.77;10.30;;;19.30;56.20;;;;;;5060403;28;20477;-84
2022/08/30 06:21:42;;;;;;;69.67;8.53;;;19.30;55.40;;;;;;5059458;28;20498;-85
2022/08/30 06:24:12;;;;;;;70.90;10.70;;;19.30;55.30;;;;;;5079007;28;20388;-84
2022/08/30 06:26:41;;;;;;;71.10;13.60;;;19.30;57.30;;;;;;5079700;28;20422;-85
2022/08/30 06:29:14;;;;;;;71.37;12.33;;;19.30;58.50;;;;;;5062610;28;20492;-85
2022/08/30 06:31:40;;;;;;;70.20;11.67;;;19.30;58.90;;;;;;5079594;28;20805;-85
2022/08/30 06:34:06;;;;;;;70.37;11.50;;;19.30;58.30;;;;;;5061402;28;20411;-85
2022/08/30 06:36:32;;;;;;;69.00;12.10;;;19.30;60.90;;;;;;5079806;28;20459;-84
2022/08/30 06:38:59;;;;;;;70.90;11.73;;;19.30;61.10;;;;;;5061365;28;20405;-84
2022/08/30 06:41:28;;;;;;;71.70;12.40;;;19.30;60.30;;;;;;5061513;28;20404;-85
2022/08/30 06:43:55;;;;;;;72.67;13.00;;;19.30;61.50;;;;;;5080055;28;20408;-84
2022/08/30 06:46:38;;;;;;;70.90;12.03;;;19.30;63.50;;;;;;5079661;28;20497;-84
2022/08/30 06:49:06;;;;;;;70.20;10.27;;;19.50;59.00;;;;;;5061426;28;20406;-84
2022/08/30 06:51:35;;;;;;;72.80;8.73;;;19.50;57.30;;;;;;5079930;28;20410;-84
2022/08/30 06:54:02;;;;;;;70.40;7.50;;;19.70;51.00;;;;;;5080120;28;20488;-84
2022/08/30 06:56:28;;;;;;;70.90;6.27;;;19.80;45.80;;;;;;5061165;28;20470;-84
2022/08/30 06:58:54;;;;;;;72.20;6.83;;;19.80;43.70;;;;;;5078052;28;20469;-84
2022/08/30 07:01:23;;;;;;;70.40;6.70;;;19.80;42.50;;;;;;5078544;28;20160;-84
2022/08/30 07:03:49;;;;;;;72.40;6.00;;;19.90;39.50;;;;;;5078577;28;20587;-84
2022/08/30 07:06:16;;;;;;;71.80;5.47;;;20.00;37.90;;;;;;5060559;28;20904;-85
2022/08/30 07:08:42;;;;;;;71.70;6.67;;;20.10;35.10;;;;;;5077976;28;20413;-85
2022/08/30 07:11:08;;;;;;;68.97;5.30;;;20.20;31.50;;;;;;5077784;28;20407;-85
2022/08/30 07:13:35;;;;;;;68.23;5.33;;;20.20;32.60;;;;;;5078161;28;20171;-84
2022/08/30 07:16:07;;;;;;;69.93;4.97;;;20.40;29.70;;;;;;5078497;28;20451;-85
2022/08/30 07:18:53;;;;;;;71.20;5.93;;;20.40;26.70;;;;;;5060551;28;20397;-85
2022/08/30 07:21:22;;;;;;;73.30;6.20;;;20.40;28.50;;;;;;5078939;28;20490;-85
2022/08/30 07:23:48;;;;;;;70.67;4.50;;;20.50;25.30;;;;;;5078306;28;20758;-85
2022/08/30 07:26:16;;;;;;;72.40;5.57;;;20.50;24.00;;;;;;5077755;28;20398;-84
2022/08/30 07:28:44;;;;;;;73.00;5.20;;;20.50;24.40;;;;;;5076596;28;20402;-84
2022/08/30 07:31:11;;;;;;;74.00;5.10;;;20.50;24.80;;;;;;5076883;28;20418;-84
2022/08/30 07:33:39;;;;;;;77.13;5.10;;;20.50;23.50;;;;;;5077745;28;20824;-85
2022/08/30 07:36:06;;;;;;;75.17;4.40;;;20.60;24.80;;;;;;5058700;28;20446;-85
2022/08/30 07:38:32;;;;;;;72.00;4.23;;;20.60;23.20;;;;;;5077207;28;20901;-85
2022/08/30 07:41:00;;;;;;;70.27;4.50;;;20.60;22.70;;;;;;5077749;28;20413;-85
2022/08/30 07:43:27;;;;;;;70.43;5.30;;;20.60;23.00;;;;;;5059297;28;20414;-85
2022/08/30 07:45:53;;;;;;;70.07;4.80;;;20.50;21.80;;;;;;5077631;28;20855;-85
2022/08/30 07:48:19;;;;;;;69.77;4.80;;;20.60;21.10;;;;;;5077544;28;20431;-84
2022/08/30 07:50:46;;;;;;;66.63;4.03;;;20.80;21.00;;;;;;5078497;28;20462;-85
2022/08/30 07:53:12;;;;;;;67.27;5.13;;;20.90;13.90;;;;;;5059646;28;20171;-85
2022/08/30 07:55:38;;;;;;;69.70;4.43;;;21.00;10.60;;;;;;5059821;28;20587;-85
2022/08/30 07:58:04;;;;;;;70.40;4.67;;;21.20;13.30;;;;;;5078923;28;20415;-85
2022/08/30 08:00:30;;;;;;;67.53;4.60;;;21.20;8.20;;;;;;5060036;28;20407;-85
2022/08/30 08:02:56;;;;;;;69.97;5.40;;;21.20;9.10;;;;;;5078461;28;20406;-85
2022/08/30 08:05:24;;;;;;;67.87;4.60;;;21.20;6.50;;;;;;5060194;28;20164;-85
2022/08/30 08:07:50;;;;;;;71.10;5.63;;;21.20;10.90;;;;;;5059804;28;20332;-85
2022/08/30 08:10:16;;;;;;;69.70;4.50;;;21.20;7.50;;;;;;5078825;28;20889;-85
2022/08/30 08:12:42;;;;;;;71.17;5.20;;;21.20;8.80;;;;;;5080069;28;20168;-85
2022/08/30 08:15:08;;;;;;;70.57;4.40;;;21.20;7.20;;;;;;5080563;28;20574;-85
2022/08/30 08:17:33;;;;;;;68.10;5.40;;;21.40;4.30;;;;;;5079626;28;20172;-85
2022/08/30 08:19:59;;;;;;;71.70;5.27;;;21.40;1.00;;;;;;5061359;28;20410;-85
2022/08/30 08:22:25;;;;;;;66.57;5.30;;;21.50;1.00;;;;;;5079502;28;20169;-85
2022/08/30 08:24:51;;;;;;;69.57;4.60;;;21.50;1.00;;;;;;5079169;28;20168;-85
2022/08/30 08:27:17;;;;;;;72.50;4.77;;;21.70;1.00;;;;;;5061202;28;20568;-84
2022/08/30 08:29:42;;;;;;;70.00;4.33;;;21.80;1.00;;;;;;5078622;28;20675;-85
2022/08/30 08:32:08;;;;;;;69.87;4.20;;;21.90;1.00;;;;;;5078005;28;20186;-85
2022/08/30 08:34:34;;;;;;;68.03;4.07;;;22.00;1.00;;;;;;5078389;28;20170;-85
2022/08/30 08:37:00;;;;;;;70.17;4.70;;;22.10;1.00;;;;;;5079526;28;20188;-85
2022/08/30 08:39:26;;;;;;;67.07;3.73;;;22.10;1.00;;;;;;5080364;28;20398;-85
2022/08/30 08:42:02;;;;;;;68.00;4.30;;;22.00;1.00;;;;;;5079659;28;20259;-85
2022/08/30 08:44:34;;;;;;;67.37;4.00;;;22.00;1.00;;;;;;5079824;28;20204;-85
2022/08/30 08:47:17;;;;;;;70.00;4.33;;;22.00;1.00;;;;;;5079053;28;20410;-84
2022/08/30 08:49:46;;;;;;;71.13;4.53;;;22.00;1.00;;;;;;5060857;28;20406;-85
2022/08/30 08:55:21;;;;;;;70.43;3.80;;;22.20;1.00;;;;;;5078643;28;20457;-84
2022/08/30 08:57:47;;;;;;;68.70;3.97;;;22.30;1.00;;;;;;5079103;28;20939;-85
2022/08/30 09:00:14;;;;;;;69.10;4.13;;;22.30;1.00;;;;;;5078570;28;20403;-85
2022/08/30 09:02:59;;;;;;;68.80;3.73;;;22.50;1.00;;;;;;5079036;28;20521;-85
2022/08/30 09:05:30;;;;;;;67.37;3.53;;;22.60;1.00;;;;;;5078173;28;20382;-85
2022/08/30 09:08:03;;;;;;;70.70;3.90;;;22.80;1.00;;;;;;5078533;28;20905;-84
2022/08/30 09:10:31;;;;;;;67.23;3.50;;;22.90;1.00;;;;;;5077347;28;20383;-83
2022/08/30 09:12:58;;;;;;;68.23;3.80;;;23.00;1.00;;;;;;5058037;28;20939;-83
2022/08/30 09:15:27;;;;;;;67.07;3.23;;;23.10;1.00;;;;;;5075837;28;20438;-83
2022/08/30 09:18:04;;;;;;;68.27;3.67;;;23.30;1.00;;;;;;5076322;28;20450;-83
2022/08/30 09:20:35;;;;;;;66.20;3.70;;;23.50;1.00;;;;;;5076474;28;20383;-83
2022/08/30 09:23:19;;;;;;;67.13;3.20;;;23.70;1.00;;;;;;5059957;28;20468;-82
2022/08/30 09:25:58;;;;;;;67.40;3.40;;;23.80;1.00;;;;;;5060467;28;20782;-82
2022/08/30 09:28:42;;;;;;;67.67;3.00;;;23.80;1.00;;;;;;5059832;28;20472;-82
2022/08/30 09:31:18;;;;;;;68.60;3.80;;;23.90;1.00;;;;;;5060662;28;20410;-82
2022/08/30 09:34:08;;;;;;;67.27;3.37;;;23.80;1.00;;;;;;5079281;28;20418;-82
2022/08/30 09:36:38;;;;;;;66.97;3.53;;;23.90;1.00;;;;;;5077742;28;20473;-82
2022/08/30 09:39:13;;;;;;;72.13;3.67;;;24.00;1.00;;;;;;5078129;28;20383;-82
2022/08/30 09:41:42;;;;;;;69.03;3.13;;;24.00;1.00;;;;;;5078380;28;20382;-82
2022/08/30 09:44:17;;;;;;;68.10;3.80;;;23.80;1.00;;;;;;5078366;28;20414;-82
2022/08/30 09:46:49;;;;;;;72.57;4.00;;;23.70;1.00;;;;;;5059791;28;20430;-82
2022/08/30 09:49:36;;;;;;;69.10;3.03;;;23.50;1.00;;;;;;5059737;28;20414;-82
2022/08/30 09:52:15;;;;;;;70.00;3.43;;;23.60;1.00;;;;;;5077739;28;20398;-82
2022/08/30 09:55:07;;;;;;;68.40;4.30;;;23.70;1.00;;;;;;5078068;28;20387;-82
2022/08/30 09:57:59;;;;;;;68.17;4.90;;;24.00;1.00;;;;;;5059626;28;20937;-82
2022/08/30 10:00:30;;;;;;;70.60;5.80;;;24.30;1.00;;;;;;5059773;28;20906;-82
2022/08/30 10:03:18;;;;;;;68.37;5.60;;;24.30;1.00;;;;;;5077758;28;20385;-82
2022/08/30 10:05:43;;;;;;;73.20;7.10;;;24.20;1.00;;;;;;5077704;28;20784;-82
2022/08/30 10:08:20;;;;;;;69.37;5.40;;;24.20;1.00;;;;;;5077126;28;20422;-81
2022/08/30 10:10:49;;;;;;;70.40;6.00;;;24.40;1.00;;;;;;5077620;28;20149;-82
2022/08/30 10:13:23;;;;;;;71.00;5.30;;;24.60;1.00;;;;;;5077474;28;20792;-82
2022/08/30 10:16:02;;;;;;;70.47;5.43;;;24.70;1.00;;;;;;5059267;28;20442;-82
2022/08/30 10:18:54;;;;;;;71.33;4.33;;;24.80;1.00;;;;;;5077026;28;20444;-82
2022/08/30 10:21:30;;;;;;;71.03;4.00;;;24.80;1.00;;;;;;5073913;28;20435;-82
2022/08/30 10:24:02;;;;;;;67.07;3.30;;;25.00;1.00;;;;;;5059340;28;20442;-82
2022/08/30 10:26:43;;;;;;;66.77;3.40;;;25.20;1.00;;;;;;5076931;28;20431;-82
2022/08/30 10:29:14;;;;;;;68.97;3.60;;;25.40;1.00;;;;;;5076752;28;20433;-82
2022/08/30 10:31:57;;;;;;;78.90;3.43;;;25.60;1.00;;;;;;5138027;22;20919;-81
2022/08/30 10:34:36;;;;;;;68.00;3.03;;;25.80;1.00;;;;;;5082617;28;20899;-82
2022/08/30 10:37:08;;;;;;;67.70;4.20;;;25.80;1.00;;;;;;5083189;28;20429;-82
2022/08/30 10:39:47;;;;;;;70.10;4.13;;;25.80;1.00;;;;;;5082147;28;20852;-82
2022/08/30 10:42:29;;;;;;;67.00;4.53;;;25.90;1.00;;;;;;5082852;28;20382;-82
2022/08/30 10:45:05;;;;;;;68.50;4.97;;;26.10;1.00;;;;;;5063843;28;20486;-81
2022/08/30 10:47:40;;;;;;;68.63;5.10;;;26.20;1.00;;;;;;5064689;28;20437;-82
2022/08/30 10:50:23;;;;;;;69.17;5.80;;;26.10;1.00;;;;;;5065437;28;20393;-82
2022/08/30 10:53:25;;;;;;;68.40;5.20;;;26.30;1.00;;;;;;5082668;28;20409;-84
2022/08/30 10:55:57;;;;;;;67.67;4.53;;;26.50;1.00;;;;;;5065286;28;20500;-84
2022/08/30 10:58:23;;;;;;;69.13;5.00;;;26.40;1.00;;;;;;5064630;28;20434;-83
2022/08/30 11:01:04;;;;;;;68.50;5.03;;;26.40;1.00;;;;;;5082615;28;20391;-84
2022/08/30 11:03:54;;;;;;;78.63;5.00;;;26.50;1.00;;;;;;5082352;28;20152;-84
2022/08/30 11:06:41;;;;;;;71.47;3.40;;;26.70;1.00;;;;;;5291886;22;20482;-83
2022/08/30 11:10:01;;;;;;;67.90;3.40;;;27.00;1.00;;;;;;5059876;28;20396;-83
2022/08/30 11:12:49;;;;;;;67.70;3.43;;;26.90;1.00;;;;;;5018932;28;20378;-83
2022/08/30 11:15:19;;;;;;;71.77;3.20;;;27.40;1.00;;;;;;5059645;28;20427;-83
2022/08/30 11:18:02;;;;;;;68.63;3.90;;;27.40;1.00;;;;;;5060724;28;20422;-84
2022/08/30 11:20:31;;;;;;;68.20;3.50;;;27.20;1.00;;;;;;5042909;28;20415;-84
2022/08/30 11:23:27;;;;;;;70.50;4.20;;;27.80;1.00;;;;;;5060667;28;20407;-84
2022/08/30 11:25:58;;;;;;;69.23;3.83;;;28.10;1.00;;;;;;5045611;28;20413;-84
2022/08/30 11:28:36;;;;;;;74.73;3.40;;;27.70;1.00;;;;;;5060875;28;20509;-84
2022/08/30 11:31:10;;;;;;;69.77;4.03;;;27.50;1.00;;;;;;5060013;28;20490;-84
2022/08/30 11:33:58;;;;;;;69.13;3.43;;;27.90;1.00;;;;;;5060129;28;20543;-84
2022/08/30 11:36:31;;;;;;;68.17;3.50;;;27.90;1.00;;;;;;5059444;28;20544;-84
2022/08/30 11:39:43;;;;;;;68.17;3.33;;;28.00;1.00;;;;;;5059967;28;20410;-84
2022/08/30 11:42:43;;;;;;;68.77;3.67;;;28.00;1.00;;;;;;5058352;28;20407;-84
2022/08/30 11:45:21;;;;;;;69.20;3.27;;;27.80;1.00;;;;;;5041258;28;20434;-84
2022/08/30 11:47:52;;;;;;;68.10;3.50;;;27.50;1.00;;;;;;5059532;28;20422;-84
2022/08/30 11:50:59;;;;;;;67.00;3.27;;;27.30;1.00;;;;;;5059821;28;20395;-84
2022/08/30 11:53:32;;;;;;;70.17;3.90;;;27.50;1.00;;;;;;5059092;28;20417;-83
2022/08/30 11:56:11;;;;;;;69.37;3.40;;;27.90;1.00;;;;;;5059359;28;20502;-83
2022/08/30 11:58:57;;;;;;;69.30;3.33;;;27.70;1.00;;;;;;5060240;28;20379;-85
2022/08/30 12:01:26;;;;;;;67.47;3.00;;;27.80;1.00;;;;;;5059908;28;20384;-85
2022/08/30 12:04:15;;;;;;;68.43;3.10;;;27.80;1.00;;;;;;5059089;28;20425;-85
2022/08/30 12:06:41;;;;;;;67.97;3.57;;;28.20;1.00;;;;;;5059051;28;20438;-83
2022/08/30 12:09:31;;;;;;;67.90;3.80;;;28.60;1.00;;;;;;5041259;28;20925;-85
2022/08/30 12:11:59;;;;;;;71.63;4.60;;;28.70;1.00;;;;;;5041375;28;20177;-83
2022/08/30 12:14:46;;;;;;;68.60;3.43;;;28.90;1.00;;;;;;5059149;28;21013;-83
2022/08/30 12:20:03;;;;;;;68.43;3.70;;;28.50;1.00;;;;;;5059232;28;20399;-83
2022/08/30 12:22:32;;;;;;;70.30;4.40;;;28.50;1.00;;;;;;5059904;28;20387;-85
2022/08/30 12:24:58;;;;;;;69.07;4.17;;;28.60;1.00;;;;;;5059678;28;20479;-84
2022/08/30 12:27:27;;;;;;;69.50;3.70;;;28.70;1.00;;;;;;5061761;28;20447;-83
2022/08/30 12:29:58;;;;;;;70.43;3.83;;;28.80;1.00;;;;;;5045376;28;20192;-85
2022/08/30 12:32:25;;;;;;;68.97;3.67;;;28.80;1.00;;;;;;5062715;28;20384;-83
2022/08/30 12:34:52;;;;;;;67.97;3.63;;;27.90;1.00;;;;;;5062238;28;20433;-83
2022/08/30 12:37:36;;;;;;;71.50;4.33;;;27.80;1.00;;;;;;5061806;28;20451;-83
2022/08/30 12:40:08;;;;;;;70.93;4.13;;;27.60;1.00;;;;;;5060182;28;20424;-83
2022/08/30 12:42:50;;;;;;;71.43;3.97;;;27.60;1.00;;;;;;5060368;28;20495;-83
2022/08/30 12:45:22;;;;;;;67.53;3.83;;;27.80;1.00;;;;;;5060214;28;20466;-83
2022/08/30 12:47:50;;;;;;;68.57;3.17;;;28.10;1.00;;;;;;5061159;28;20447;-83
2022/08/30 12:50:20;;;;;;;69.70;3.57;;;28.40;1.00;;;;;;5060798;28;20437;-83
2022/08/30 12:52:55;;;;;;;68.30;3.30;;;28.60;1.00;;;;;;5042243;28;20419;-83
2022/08/30 12:55:25;;;;;;;66.67;3.30;;;28.70;1.00;;;;;;5061680;28;20568;-83
2022/08/30 12:57:54;;;;;;;68.90;3.77;;;28.90;1.00;;;;;;5063467;28;20419;-83
2022/08/30 13:00:35;;;;;;;68.00;3.53;;;29.30;1.00;;;;;;5065503;28;20407;-83
2022/08/30 13:03:22;;;;;;;68.00;3.83;;;29.30;1.00;;;;;;5065145;28;20391;-84